createdAt,value
2023-02-18T00:02:02.658Z,99191.11
2023-02-18T00:04:32.366Z,99188.30
2023-02-18T00:07:01.256Z,99184.77
2023-02-18T00:09:31.089Z,99174.64
2023-02-18T00:11:59.976Z,99167.16
2023-02-18T00:14:28.688Z,99156.69
2023-02-18T00:16:57.376Z,99150.81
2023-02-18T00:19:26.113Z,99146.73
2023-02-18T00:21:54.683Z,99140.63
2023-02-18T00:24:23.516Z,99137.90
2023-02-18T00:26:52.343Z,99134.70
2023-02-18T00:29:21.161Z,99134.10
2023-02-18T00:31:52.399Z,99139.83
2023-02-18T00:34:21.556Z,99140.36
2023-02-18T00:36:50.087Z,99140.67
2023-02-18T00:39:18.638Z,99143.55
2023-02-18T00:41:47.320Z,99141.37
2023-02-18T00:44:17.397Z,99147.73
2023-02-18T00:46:48.486Z,99156.45
2023-02-18T00:49:17.355Z,99162.28
2023-02-18T00:51:45.963Z,99164.06
2023-02-18T00:54:14.676Z,99175.25
2023-02-18T00:56:43.184Z,99175.21
2023-02-18T00:59:13.829Z,99171.98
2023-02-18T01:01:42.456Z,99171.27
2023-02-18T01:04:14.574Z,99165.75
2023-02-18T01:06:45.184Z,99165.59
2023-02-18T01:09:14.005Z,99168.27
2023-02-18T01:11:42.868Z,99165.24
2023-02-18T01:14:11.513Z,99168.64
2023-02-18T01:16:41.936Z,99171.55
2023-02-18T01:19:10.874Z,99163.62
2023-02-18T01:21:40.063Z,99158.17
2023-02-18T01:24:09.773Z,99150.83
2023-02-18T01:26:38.522Z,99147.58
2023-02-18T01:29:07.162Z,99146.96
2023-02-18T01:31:36.335Z,99146.83
2023-02-18T01:34:06.498Z,99141.46
2023-02-18T01:36:35.412Z,99133.23
2023-02-18T01:39:06.226Z,99141.18
2023-02-18T01:41:35.722Z,99144.89
2023-02-18T01:44:18.761Z,99150.58
2023-02-18T01:46:47.445Z,99154.95
2023-02-18T01:49:24.157Z,99150.04
2023-02-18T01:51:56.509Z,99149.34
2023-02-18T01:54:40.001Z,99151.33
2023-02-18T01:57:31.748Z,99151.78
2023-02-18T02:00:04.243Z,99165.23
2023-02-18T02:02:45.789Z,99167.01
2023-02-18T02:05:14.986Z,99166.27
2023-02-18T02:07:43.753Z,99170.48
2023-02-18T02:10:13.294Z,99172.60
2023-02-18T02:13:05.568Z,99176.64
2023-02-18T02:15:38.966Z,99181.52
2023-02-18T02:18:09.857Z,99186.19
2023-02-18T02:21:01.830Z,99198.85
2023-02-18T02:23:46.158Z,99208.10
2023-02-18T02:26:17.617Z,99200.95
2023-02-18T02:29:10.218Z,99201.33
2023-02-18T02:31:51.137Z,99200.77
2023-02-18T02:34:38.402Z,99192.99
2023-02-18T02:37:07.179Z,99194.52
2023-02-18T02:39:52.651Z,99191.16
2023-02-18T02:42:28.937Z,99182.54
2023-02-18T02:45:06.461Z,99184.79
2023-02-18T02:47:47.059Z,99174.00
2023-02-18T02:50:43.796Z,99170.30
2023-02-18T02:53:20.556Z,99184.11
2023-02-18T02:55:49.404Z,99193.38
2023-02-18T02:58:20.234Z,99216.67
2023-02-18T03:01:21.270Z,99232.95
2023-02-18T03:04:04.934Z,99222.54
2023-02-18T03:06:48.003Z,99210.50
2023-02-18T03:09:17.641Z,99222.21
2023-02-18T03:12:06.867Z,99225.34
2023-02-18T03:14:49.446Z,99224.64
2023-02-18T03:17:30.710Z,99230.69
2023-02-18T03:20:20.568Z,99216.58
2023-02-18T03:22:49.214Z,99216.10
2023-02-18T03:25:18.390Z,99223.87
2023-02-18T03:27:51.528Z,99225.33
2023-02-18T03:30:26.074Z,99224.41
2023-02-18T03:32:58.536Z,99229.73
2023-02-18T03:35:29.135Z,99221.81
2023-02-18T03:38:20.647Z,99213.88
2023-02-18T03:40:49.375Z,99206.13
2023-02-18T03:43:18.778Z,99198.38
2023-02-18T03:45:47.982Z,99199.75
2023-02-18T03:48:17.005Z,99203.23
2023-02-18T03:50:46.442Z,99215.14
2023-02-18T03:53:17.961Z,99247.83
2023-02-18T03:55:47.081Z,99280.10
2023-02-18T03:58:15.511Z,99306.78
2023-02-18T04:00:44.325Z,99323.94
2023-02-18T04:03:13.603Z,99340.54
2023-02-18T04:05:44.797Z,99361.62
2023-02-18T04:08:13.836Z,99379.64
2023-02-18T04:10:42.539Z,99386.52
2023-02-18T04:13:11.227Z,99395.05
2023-02-18T04:15:39.824Z,99413.27
2023-02-18T04:18:08.901Z,99430.42
2023-02-18T04:20:38.124Z,99436.42
2023-02-18T04:23:06.830Z,99447.33
2023-02-18T04:25:35.627Z,99453.04
2023-02-18T04:28:05.702Z,99451.42
2023-02-18T04:30:34.537Z,99448.03
2023-02-18T04:33:05.587Z,99451.66
2023-02-18T04:35:34.424Z,99461.95
2023-02-18T04:38:05.546Z,99460.89
2023-02-18T04:40:34.588Z,99457.04
2023-02-18T04:43:03.540Z,99456.14
2023-02-18T04:45:32.289Z,99455.09
2023-02-18T04:48:01.231Z,99453.24
2023-02-18T04:50:30.246Z,99454.86
2023-02-18T04:52:58.743Z,99460.73
2023-02-18T04:55:27.402Z,99446.78
2023-02-18T04:57:55.874Z,99449.05
2023-02-18T05:00:24.369Z,99447.78
2023-02-18T05:02:52.935Z,99440.70
2023-02-18T05:05:21.878Z,99435.73
2023-02-18T05:07:50.464Z,99429.73
2023-02-18T05:10:21.045Z,99426.93
2023-02-18T05:12:49.591Z,99425.48
2023-02-18T05:15:18.746Z,99423.48
2023-02-18T05:17:49.996Z,99420.42
2023-02-18T05:20:19.313Z,99426.64
2023-02-18T05:22:50.388Z,99421.63
2023-02-18T05:25:19.776Z,99418.13
2023-02-18T05:27:50.581Z,99416.23
2023-02-18T05:30:19.347Z,99418.67
2023-02-18T05:32:47.842Z,99422.08
2023-02-18T05:35:16.540Z,99412.94
2023-02-18T05:37:45.501Z,99411.48
2023-02-18T05:40:14.673Z,99416.48
2023-02-18T05:42:43.288Z,99421.08
2023-02-18T05:45:11.904Z,99412.33
2023-02-18T05:47:40.720Z,99416.48
2023-02-18T05:50:10.829Z,99412.85
2023-02-18T05:52:39.723Z,99413.23
2023-02-18T05:55:09.054Z,99412.13
2023-02-18T05:57:38.344Z,99418.95
2023-02-18T06:00:09.567Z,99417.20
2023-02-18T06:02:38.808Z,99431.46
2023-02-18T06:05:07.936Z,99435.08
2023-02-18T06:07:36.659Z,99432.30
2023-02-18T06:10:06.356Z,99430.29
2023-02-18T06:12:38.239Z,99425.02
2023-02-18T06:15:07.142Z,99438.90
2023-02-18T06:17:35.994Z,99452.33
2023-02-18T06:20:05.172Z,99472.42
2023-02-18T06:22:33.859Z,99519.13
2023-02-18T06:25:02.416Z,99533.30
2023-02-18T06:27:31.721Z,99523.07
2023-02-18T06:30:00.634Z,99521.69
2023-02-18T06:32:29.718Z,99522.99
2023-02-18T06:34:58.851Z,99522.61
2023-02-18T06:37:28.403Z,99521.09
2023-02-18T06:39:57.366Z,99517.51
2023-02-18T06:42:26.255Z,99518.54
2023-02-18T06:44:55.863Z,99525.05
2023-02-18T06:47:24.580Z,99525.18
2023-02-18T06:49:53.253Z,99529.34
2023-02-18T06:52:22.055Z,99525.86
2023-02-18T06:54:53.119Z,99525.63
2023-02-18T06:57:21.359Z,99524.44
2023-02-18T06:59:49.626Z,99518.06
2023-02-18T07:02:17.971Z,99517.48
2023-02-18T07:04:46.869Z,99511.37
2023-02-18T07:07:17.814Z,99511.70
2023-02-18T07:09:46.294Z,99505.34
2023-02-18T07:12:14.709Z,99506.38
2023-02-18T07:14:46.927Z,99505.70
2023-02-18T07:17:15.702Z,99514.98
2023-02-18T07:19:44.355Z,99512.33
2023-02-18T07:22:14.245Z,99512.67
2023-02-18T07:24:42.969Z,99504.06
2023-02-18T07:27:11.716Z,99506.08
2023-02-18T07:29:40.475Z,99506.98
2023-02-18T07:32:10.313Z,99507.86
2023-02-18T07:34:39.722Z,99502.04
2023-02-18T07:37:09.775Z,99492.34
2023-02-18T07:39:42.504Z,99487.51
2023-02-18T07:42:12.057Z,99479.63
2023-02-18T07:44:41.324Z,99472.26
2023-02-18T07:47:13.104Z,99479.09
2023-02-18T07:49:41.681Z,99474.44
2023-02-18T07:52:11.833Z,99467.61
2023-02-18T07:54:41.708Z,99459.75
2023-02-18T07:57:10.714Z,99458.56
2023-02-18T07:59:39.370Z,99464.66
2023-02-18T08:02:15.446Z,99455.84
2023-02-18T08:04:44.049Z,99443.32
2023-02-18T08:07:15.098Z,99442.62
2023-02-18T08:09:43.726Z,99442.58
2023-02-18T08:12:12.441Z,99438.20
2023-02-18T08:14:42.660Z,99435.86
2023-02-18T08:17:13.435Z,99433.41
2023-02-18T08:19:42.263Z,99418.59
2023-02-18T08:22:10.868Z,99404.98
2023-02-18T08:24:39.426Z,99396.60
2023-02-18T08:27:08.506Z,99381.48
2023-02-18T08:29:37.495Z,99378.45
2023-02-18T08:32:06.508Z,99371.10
2023-02-18T08:34:36.432Z,99364.38
2023-02-18T08:37:05.242Z,99363.69
2023-02-18T08:39:39.614Z,99361.08
2023-02-18T08:42:08.978Z,99351.69
2023-02-18T08:44:37.616Z,99350.00
2023-02-18T08:48:18.373Z,99335.42
2023-02-18T08:49:58.229Z,99335.33
2023-02-18T08:52:27.273Z,99334.69
2023-02-18T08:54:55.769Z,99327.73
2023-02-18T08:57:24.720Z,99328.67
2023-02-18T08:59:53.315Z,99326.15
2023-02-18T09:02:22.709Z,99317.94
2023-02-18T09:04:51.534Z,99310.20
2023-02-18T09:07:20.630Z,99303.35
2023-02-18T09:09:49.747Z,99297.54
2023-02-18T09:12:21.254Z,99292.58
2023-02-18T09:14:49.823Z,99289.27
2023-02-18T09:17:18.419Z,99285.31
2023-02-18T09:19:49.701Z,99274.45
2023-02-18T09:22:18.690Z,99275.83
2023-02-18T09:24:47.667Z,99266.77
2023-02-18T09:27:16.392Z,99260.30
2023-02-18T09:29:45.266Z,99248.30
2023-02-18T09:32:19.976Z,99240.52
2023-02-18T09:34:55.975Z,99243.15
2023-02-18T09:37:25.194Z,99236.64
2023-02-18T09:39:58.127Z,99229.04
2023-02-18T09:42:32.684Z,99217.89
2023-02-18T09:45:03.154Z,99204.90
2023-02-18T09:47:37.880Z,99196.06
2023-02-18T09:50:20.988Z,99189.46
2023-02-18T09:52:49.521Z,99183.85
2023-02-18T09:55:22.741Z,99181.49
2023-02-18T09:57:53.809Z,99177.19
2023-02-18T10:00:31.592Z,99168.39
2023-02-18T10:03:24.672Z,99170.30
2023-02-18T10:05:56.734Z,99157.92
2023-02-18T10:08:30.032Z,99157.08
2023-02-18T10:11:02.093Z,99148.24
2023-02-18T10:13:33.498Z,99141.92
2023-02-18T10:16:02.639Z,99135.04
2023-02-18T10:18:33.957Z,99131.42
2023-02-18T10:21:08.261Z,99120.64
2023-02-18T10:24:06.134Z,99113.91
2023-02-18T10:26:41.326Z,99102.31
2023-02-18T10:29:15.734Z,99092.36
2023-02-18T10:31:51.643Z,99092.86
2023-02-18T10:34:41.495Z,99090.81
2023-02-18T10:37:32.985Z,99099.65
2023-02-18T10:40:35.992Z,99096.34
2023-02-18T10:43:23.510Z,99096.05
2023-02-18T10:46:13.268Z,99086.42
2023-02-18T10:48:54.191Z,99090.54
2023-02-18T10:51:25.133Z,99084.92
2023-02-18T10:53:53.791Z,99085.07
2023-02-18T10:56:43.769Z,99094.55
2023-02-18T10:59:13.644Z,99093.13
2023-02-18T11:01:43.137Z,99093.79
2023-02-18T11:04:20.309Z,99096.51
2023-02-18T11:06:50.099Z,99091.79
2023-02-18T11:09:26.826Z,99095.73
2023-02-18T11:12:08.612Z,99082.27
2023-02-18T11:14:43.561Z,99090.69
2023-02-18T11:17:20.126Z,99093.98
2023-02-18T11:20:02.083Z,99097.80
2023-02-18T11:22:33.393Z,99105.64
2023-02-18T11:25:03.827Z,99106.13
2023-02-18T11:27:40.297Z,99109.38
2023-02-18T11:30:24.368Z,99100.88
2023-02-18T11:32:56.670Z,99102.61
2023-02-18T11:35:26.432Z,99110.90
2023-02-18T11:37:57.846Z,99102.82
2023-02-18T11:40:34.540Z,99097.07
2023-02-18T11:43:04.917Z,99082.20
2023-02-18T11:45:34.335Z,99070.99
2023-02-18T11:48:08.596Z,99081.70
2023-02-18T11:50:37.290Z,99102.02
2023-02-18T11:53:28.000Z,99118.65
2023-02-18T11:55:58.973Z,99126.33
2023-02-18T11:58:39.163Z,99121.28
2023-02-18T12:01:14.806Z,99148.52
2023-02-18T12:03:49.190Z,99164.20
2023-02-18T12:06:33.919Z,99163.73
2023-02-18T12:09:12.809Z,99164.86
2023-02-18T12:11:43.679Z,99181.61
2023-02-18T12:14:22.152Z,99191.35
2023-02-18T12:17:15.584Z,99202.52
2023-02-18T12:20:00.823Z,99223.73
2023-02-18T12:22:45.955Z,99233.39
2023-02-18T12:25:39.885Z,99250.00
2023-02-18T12:28:43.693Z,99262.95
2023-02-18T12:31:21.267Z,99275.27
2023-02-18T12:34:12.461Z,99287.61
2023-02-18T12:36:41.282Z,99303.35
2023-02-18T12:39:18.836Z,99325.03
2023-02-18T12:41:54.238Z,99329.91
2023-02-18T12:44:30.128Z,99340.40
2023-02-18T12:47:06.124Z,99350.23
2023-02-18T12:50:13.019Z,99362.94
2023-02-18T12:53:10.043Z,99383.16
2023-02-18T12:55:45.202Z,99410.02
2023-02-18T12:58:28.570Z,99440.13
2023-02-18T13:00:57.259Z,99456.95
2023-02-18T13:04:04.139Z,99450.38
2023-02-18T13:06:45.144Z,99433.59
2023-02-18T13:09:22.969Z,99426.60
2023-02-18T13:12:07.284Z,99414.78
2023-02-18T13:14:43.770Z,99392.46
2023-02-18T13:17:12.531Z,99377.64
2023-02-18T13:20:13.731Z,99365.14
2023-02-18T13:22:42.696Z,99354.88
2023-02-18T13:25:14.880Z,99351.90
2023-02-18T13:28:29.147Z,99336.45
2023-02-18T13:31:13.594Z,99311.40
2023-02-18T13:34:04.754Z,99299.60
2023-02-18T13:37:00.245Z,99297.75
2023-02-18T13:39:29.888Z,99300.70
2023-02-18T13:42:22.962Z,99303.03
2023-02-18T13:44:57.939Z,99302.93
2023-02-18T13:47:43.107Z,99301.91
2023-02-18T13:50:26.505Z,99310.02
2023-02-18T13:53:00.729Z,99300.91
2023-02-18T13:55:39.790Z,99269.35
2023-02-18T13:58:14.695Z,99236.46
2023-02-18T14:00:50.294Z,99180.19
2023-02-18T14:03:22.248Z,99115.67
2023-02-18T14:05:53.148Z,99053.34
2023-02-18T14:08:34.949Z,98973.33
2023-02-18T14:11:14.116Z,98874.29
2023-02-18T14:13:47.752Z,98793.70
2023-02-18T14:16:19.085Z,98731.86
2023-02-18T14:18:56.398Z,98681.70
2023-02-18T14:21:37.274Z,98625.77
2023-02-18T14:24:07.877Z,98583.36
2023-02-18T14:26:39.535Z,98549.20
2023-02-18T14:29:12.945Z,98528.52
2023-02-18T14:31:48.927Z,98505.18
2023-02-18T14:34:39.335Z,98491.64
2023-02-18T14:37:17.694Z,98483.08
2023-02-18T14:39:47.554Z,98488.65
2023-02-18T14:42:38.834Z,98514.96
2023-02-18T14:45:31.352Z,98555.21
2023-02-18T14:48:24.481Z,98589.81
2023-02-18T14:50:53.201Z,98626.52
2023-02-18T14:53:23.676Z,98661.89
2023-02-18T14:55:55.708Z,98702.68
2023-02-18T14:58:44.888Z,98725.80
2023-02-18T15:01:31.528Z,98744.52
2023-02-18T15:04:01.116Z,98759.31
2023-02-18T15:06:36.333Z,98776.48
2023-02-18T15:09:15.981Z,98795.09
2023-02-18T15:12:13.108Z,98806.80
2023-02-18T15:14:42.901Z,98816.46
2023-02-18T15:17:35.584Z,98836.77
2023-02-18T15:20:06.225Z,98864.46
2023-02-18T15:22:39.886Z,98895.05
2023-02-18T15:25:14.122Z,98910.43
2023-02-18T15:27:46.301Z,98921.77
2023-02-18T15:30:30.005Z,98916.48
2023-02-18T15:33:02.044Z,98907.05
2023-02-18T15:35:33.430Z,98908.33
2023-02-18T15:38:02.470Z,98911.48
2023-02-18T15:40:32.379Z,98907.52
2023-02-18T15:43:01.713Z,98913.73
2023-02-18T15:45:35.389Z,98917.34
2023-02-18T15:48:04.896Z,98917.27
2023-02-18T15:50:38.997Z,98920.09
2023-02-18T15:53:14.335Z,98918.49
2023-02-18T15:55:46.080Z,98929.68
2023-02-18T15:58:22.445Z,98935.93
2023-02-18T16:00:56.221Z,98941.04
2023-02-18T16:03:25.545Z,98935.02
2023-02-18T16:06:11.443Z,98938.05
2023-02-18T16:08:41.304Z,98937.23
2023-02-18T16:11:12.527Z,98938.29
2023-02-18T16:13:47.880Z,98945.80
2023-02-18T16:16:26.394Z,98950.71
2023-02-18T16:18:56.576Z,98950.42
2023-02-18T16:21:38.504Z,98955.71
2023-02-18T16:24:27.275Z,98956.75
2023-02-18T16:26:59.844Z,98959.96
2023-02-18T16:29:42.057Z,98962.90
2023-02-18T16:32:12.062Z,98969.23
2023-02-18T16:34:42.145Z,98966.39
2023-02-18T16:37:29.432Z,98968.73
2023-02-18T16:39:58.616Z,98969.81
2023-02-18T16:42:27.982Z,98970.77
2023-02-18T16:44:56.770Z,98973.83
2023-02-18T16:47:25.519Z,98979.39
2023-02-18T16:49:55.740Z,98975.48
2023-02-18T16:52:24.444Z,98969.66
2023-02-18T16:54:54.732Z,98971.86
2023-02-18T16:57:23.985Z,98977.99
2023-02-18T16:59:52.884Z,98978.77
2023-02-18T17:02:23.979Z,98983.44
2023-02-18T17:04:57.793Z,98988.14
2023-02-18T17:07:26.949Z,99002.70
2023-02-18T17:09:55.699Z,99049.29
2023-02-18T17:12:25.176Z,99044.14
2023-02-18T17:14:54.329Z,99041.60
2023-02-18T17:17:23.911Z,99043.83
2023-02-18T17:19:54.097Z,99041.06
2023-02-18T17:22:23.253Z,99040.60
2023-02-18T17:24:51.885Z,99042.18
2023-02-18T17:27:21.693Z,99047.79
2023-02-18T17:29:50.794Z,99050.66
2023-02-18T17:32:23.074Z,99059.79
2023-02-18T17:34:54.474Z,99064.29
2023-02-18T17:37:23.395Z,99068.55
2023-02-18T17:39:52.886Z,99071.66
2023-02-18T17:42:21.952Z,99079.79
2023-02-18T17:44:51.861Z,99087.82
2023-02-18T17:47:23.530Z,99092.11
2023-02-18T17:49:52.512Z,99103.69
2023-02-18T17:52:29.997Z,99104.59
2023-02-18T17:54:58.892Z,99106.20
2023-02-18T17:57:27.713Z,99111.18
2023-02-18T17:59:58.386Z,99111.18
2023-02-18T18:02:27.997Z,99116.48
2023-02-18T18:04:56.740Z,99121.98
2023-02-18T18:07:25.640Z,99128.20
2023-02-18T18:09:55.685Z,99136.77
2023-02-18T18:12:31.468Z,99142.95
2023-02-18T18:15:02.052Z,99147.09
2023-02-18T18:17:31.163Z,99156.24
2023-02-18T18:20:00.231Z,99162.09
2023-02-18T18:22:30.036Z,99167.11
2023-02-18T18:24:58.933Z,99173.99
2023-02-18T18:27:29.411Z,99183.52
2023-02-18T18:29:59.281Z,99192.67
2023-02-18T18:32:29.134Z,99196.38
2023-02-18T18:34:58.571Z,99207.25
2023-02-18T18:37:27.529Z,99212.81
2023-02-18T18:39:56.467Z,99220.97
2023-02-18T18:42:25.223Z,99222.86
2023-02-18T18:44:54.402Z,99230.29
2023-02-18T18:47:23.261Z,99234.92
2023-02-18T18:49:52.748Z,99233.95
2023-02-18T18:52:22.123Z,99242.57
2023-02-18T18:54:50.723Z,99248.42
2023-02-18T18:57:19.599Z,99251.17
2023-02-18T18:59:48.458Z,99249.46
2023-02-18T19:02:18.070Z,99256.06
2023-02-18T19:04:51.598Z,99259.91
2023-02-18T19:07:20.821Z,99260.36
2023-02-18T19:09:49.968Z,99263.67
2023-02-18T19:12:18.744Z,99264.46
2023-02-18T19:14:47.785Z,99266.56
2023-02-18T19:17:20.845Z,99266.23
2023-02-18T19:19:49.669Z,99269.83
2023-02-18T19:22:19.166Z,99271.67
2023-02-18T19:24:48.076Z,99274.70
2023-02-18T19:27:17.535Z,99280.80
2023-02-18T19:29:48.814Z,99286.61
2023-02-18T19:32:18.617Z,99290.15
2023-02-18T19:34:49.219Z,99291.73
2023-02-18T19:37:19.399Z,99291.90
2023-02-18T19:39:48.599Z,99296.05
2023-02-18T19:42:20.486Z,99298.82
2023-02-18T19:44:49.198Z,99295.93
2023-02-18T19:47:17.871Z,99296.14
2023-02-18T19:49:48.165Z,99293.22
2023-02-18T19:52:20.370Z,99296.76
2023-02-18T19:54:49.189Z,99296.27
2023-02-18T19:57:18.349Z,99295.73
2023-02-18T19:59:47.130Z,99293.19
2023-02-18T20:02:21.684Z,99295.46
2023-02-18T20:04:50.787Z,99300.36
2023-02-18T20:07:22.057Z,99302.66
2023-02-18T20:09:53.725Z,99307.94
2023-02-18T20:12:26.369Z,99308.46
2023-02-18T20:14:55.803Z,99316.25
2023-02-18T20:17:24.660Z,99315.88
2023-02-18T20:19:53.502Z,99317.15
2023-02-18T20:22:22.369Z,99319.59
2023-02-18T20:24:53.272Z,99317.52
2023-02-18T20:27:22.168Z,99313.95
2023-02-18T20:29:51.743Z,99312.60
2023-02-18T20:32:20.728Z,99312.07
2023-02-18T20:34:49.733Z,99308.65
2023-02-18T20:37:19.849Z,99310.30
2023-02-18T20:39:48.883Z,99312.97
2023-02-18T20:42:17.972Z,99316.89
2023-02-18T20:44:47.674Z,99321.55
2023-02-18T20:47:18.101Z,99326.92
2023-02-18T20:49:47.023Z,99327.21
2023-02-18T20:52:16.128Z,99331.09
2023-02-18T20:54:44.704Z,99329.77
2023-02-18T20:57:13.248Z,99327.63
2023-02-18T20:59:42.169Z,99328.98
2023-02-18T21:02:14.439Z,99329.47
2023-02-18T21:04:45.403Z,99326.05
2023-02-18T21:07:13.943Z,99324.48
2023-02-18T21:09:44.230Z,99318.98
2023-02-18T21:12:12.956Z,99319.49
2023-02-18T21:14:42.095Z,99315.70
2023-02-18T21:17:14.297Z,99317.02
2023-02-18T21:19:43.348Z,99315.98
2023-02-18T21:22:12.148Z,99311.58
2023-02-18T21:24:40.715Z,99306.03
2023-02-18T21:27:10.737Z,99307.05
2023-02-18T21:29:39.722Z,99304.88
2023-02-18T21:32:08.291Z,99298.55
2023-02-18T21:34:40.107Z,99295.68
2023-02-18T21:37:09.266Z,99293.75
2023-02-18T21:39:38.148Z,99289.52
2023-02-18T21:42:06.964Z,99284.46
2023-02-18T21:44:42.366Z,99281.69
2023-02-18T21:47:12.186Z,99286.04
2023-02-18T21:49:41.038Z,99282.42
2023-02-18T21:52:10.050Z,99276.69
2023-02-18T21:54:40.496Z,99278.39
2023-02-18T21:57:14.704Z,99279.27
2023-02-18T21:59:45.446Z,99280.78
2023-02-18T22:02:21.841Z,99274.45
2023-02-18T22:04:50.431Z,99275.12
2023-02-18T22:07:19.426Z,99269.96
2023-02-18T22:09:49.129Z,99266.95
2023-02-18T22:12:21.827Z,99269.37
2023-02-18T22:14:50.279Z,99265.00
2023-02-18T22:17:19.680Z,99260.95
2023-02-18T22:19:51.043Z,99260.40
2023-02-18T22:22:20.048Z,99258.23
2023-02-18T22:24:52.180Z,99257.52
2023-02-18T22:27:20.678Z,99251.70
2023-02-18T22:29:51.132Z,99257.12
2023-02-18T22:32:20.441Z,99252.64
2023-02-18T22:34:49.283Z,99249.67
2023-02-18T22:37:18.196Z,99248.73
2023-02-18T22:39:46.668Z,99246.19
2023-02-18T22:42:16.244Z,99241.02
2023-02-18T22:44:44.786Z,99238.39
2023-02-18T22:47:13.368Z,99239.41
2023-02-18T22:49:42.817Z,99235.88
2023-02-18T22:52:11.410Z,99229.49
2023-02-18T22:54:40.534Z,99226.77
2023-02-18T22:57:09.577Z,99220.14
2023-02-18T22:59:39.334Z,99224.11
2023-02-18T23:02:07.948Z,99218.98
2023-02-18T23:04:39.152Z,99226.30
2023-02-18T23:07:07.736Z,99217.30
2023-02-18T23:09:36.526Z,99225.31
2023-02-18T23:12:05.746Z,99222.46
2023-02-18T23:14:36.838Z,99220.00
2023-02-18T23:17:14.872Z,99218.52
2023-02-18T23:19:51.567Z,99222.88
2023-02-18T23:22:28.644Z,99223.67
2023-02-18T23:24:57.292Z,99215.81
2023-02-18T23:27:27.675Z,99213.95
2023-02-18T23:29:56.634Z,99216.02
2023-02-18T23:32:26.059Z,99207.96
2023-02-18T23:34:55.157Z,99213.92
2023-02-18T23:37:44.208Z,99211.34
2023-02-18T23:40:15.009Z,99209.61
2023-02-18T23:42:43.780Z,99214.38
2023-02-18T23:45:12.838Z,99208.66
2023-02-18T23:47:45.516Z,99210.39
2023-02-18T23:50:17.682Z,99206.78
2023-02-18T23:52:49.057Z,99213.72
2023-02-18T23:55:17.881Z,99214.10
2023-02-18T23:57:46.836Z,99214.05
